Time;durP1;ratioP1;P1;durP2;ratioP2;P2;SDS_P1;SDS_P2;PMS_P1;PMS_P2;Temp;Humidity;BMP_temperature;BMP_pressure;BME280_temperature;BME280_humidity;BME280_pressure;Samples;Min_cycle;Max_cycle;Signal;HPM_P1;HPM_P2
2022/05/20 00:00:46;;;;;;;4.55;3.92;;;;;;;17.12;68.06;102442.59;5074212;28;20493;-81
2022/05/20 00:03:12;;;;;;;4.85;3.60;;;;;;;17.12;68.24;102444.34;5092204;28;20032;-81
2022/05/20 00:05:38;;;;;;;4.80;3.58;;;;;;;17.14;68.14;102440.94;5092231;28;20028;-81
2022/05/20 00:08:04;;;;;;;4.20;3.80;;;;;;;17.16;67.97;102441.03;5090764;28;20028;-81
2022/05/20 00:10:30;;;;;;;4.32;3.92;;;;;;;17.13;67.87;102441.78;5090929;28;20043;-81
2022/05/20 00:12:57;;;;;;;4.70;3.83;;;;;;;17.00;67.58;102418.22;5091925;28;20497;-82
2022/05/20 00:15:24;;;;;;;5.45;3.75;;;;;;;17.15;67.91;102449.81;5092149;28;20042;-81
2022/05/20 00:17:50;;;;;;;4.97;3.80;;;;;;;17.11;67.90;102438.16;5071904;28;20482;-81
2022/05/20 00:20:18;;;;;;;5.60;3.75;;;;;;;17.08;68.02;102438.91;5073977;28;20115;-81
2022/05/20 00:22:57;;;;;;;4.72;4.00;;;;;;;17.06;67.92;102423.81;5080135;28;20107;-81
2022/05/20 00:28:08;;;;;;;4.35;3.60;;;;;;;17.03;67.99;102426.28;5117459;28;20081;-82
2022/05/20 00:30:34;;;;;;;5.30;3.85;;;;;;;17.07;67.88;102442.34;5086867;28;20405;-81
2022/05/20 00:32:59;;;;;;;3.63;3.33;;;;;;;16.99;68.08;102432.22;5092699;28;20064;-82
2022/05/20 00:35:26;;;;;;;4.05;3.65;;;;;;;17.03;68.08;102445.66;5089781;28;20032;-81
2022/05/20 00:37:52;;;;;;;4.20;3.70;;;;;;;17.03;68.00;102440.38;5091699;28;20036;-81
2022/05/20 00:40:21;;;;;;;4.35;3.70;;;;;;;17.08;67.97;102445.91;5073138;28;20042;-82
2022/05/20 00:42:48;;;;;;;4.15;3.75;;;;;;;17.00;67.90;102439.31;5089253;28;20032;-81
2022/05/20 00:45:15;;;;;;;4.30;3.90;;;;;;;17.00;67.74;102442.88;5091501;28;20095;-81
2022/05/20 00:47:42;;;;;;;4.63;4.18;;;;;;;17.04;67.79;102436.94;5073693;28;20039;-81
2022/05/20 00:50:13;;;;;;;5.28;4.00;;;;;;;17.02;67.91;102435.03;5073569;28;20027;-81
2022/05/20 00:52:41;;;;;;;4.20;3.50;;;;;;;17.03;67.89;102434.19;5071698;28;20043;-81
2022/05/20 00:55:11;;;;;;;4.00;3.60;;;;;;;17.02;67.91;102441.22;5072889;28;20036;-81
2022/05/20 00:57:43;;;;;;;6.00;3.90;;;;;;;17.00;68.04;102434.03;5073513;28;20102;-81
2022/05/20 01:00:16;;;;;;;4.38;3.97;;;;;;;16.94;68.23;102434.59;5070702;28;20020;-81
2022/05/20 01:02:42;;;;;;;5.97;3.65;;;;;;;16.95;68.10;102432.88;5085508;28;20030;-81
2022/05/20 01:05:23;;;;;;;4.57;3.40;;;;;;;16.91;68.34;102444.06;5094304;28;20099;-81
2022/05/20 01:07:49;;;;;;;4.00;3.60;;;;;;;16.83;67.82;102418.19;5095526;28;20024;-81
2022/05/20 01:10:14;;;;;;;5.10;3.53;;;;;;;16.92;68.07;102436.25;5071185;28;20025;-81
2022/05/20 01:12:40;;;;;;;4.13;3.53;;;;;;;16.92;68.17;102443.28;5095580;28;20028;-81
2022/05/20 01:15:07;;;;;;;4.95;3.60;;;;;;;16.82;68.14;102429.56;5077481;28;20401;-81
2022/05/20 01:17:33;;;;;;;3.90;3.50;;;;;;;16.90;68.21;102443.19;5077478;28;20485;-81
2022/05/20 01:19:59;;;;;;;4.15;3.67;;;;;;;16.85;68.06;102432.38;5093820;28;20173;-82
2022/05/20 01:22:40;;;;;;;3.85;3.50;;;;;;;16.88;68.12;102429.00;5095461;28;20032;-81
2022/05/20 01:25:07;;;;;;;5.53;3.83;;;;;;;16.88;68.22;102445.72;5092024;28;20042;-81
2022/05/20 01:27:36;;;;;;;3.97;3.65;;;;;;;16.85;68.03;102431.47;5094450;28;20370;-82
2022/05/20 01:30:05;;;;;;;3.50;3.20;;;;;;;16.90;68.14;102437.91;5095341;28;20027;-82
2022/05/20 01:32:31;;;;;;;4.22;3.47;;;;;;;16.85;68.06;102427.09;5077228;28;20500;-81
2022/05/20 01:34:57;;;;;;;6.60;3.80;;;;;;;16.80;68.24;102424.97;5077213;28;20055;-81
2022/05/20 01:37:22;;;;;;;4.75;3.50;;;;;;;16.83;67.96;102426.09;5094022;28;20409;-81
2022/05/20 01:39:48;;;;;;;4.00;3.60;;;;;;;16.67;68.01;102400.56;5092426;28;20028;-82
2022/05/20 01:42:40;;;;;;;6.18;3.42;;;;;;;16.87;67.83;102424.56;5095113;28;20040;-81
2022/05/20 01:45:11;;;;;;;5.45;4.00;;;;;;;16.83;68.02;102431.38;5076928;28;20032;-81
2022/05/20 01:48:05;;;;;;;5.10;3.28;;;;;;;16.84;68.06;102433.19;5075548;28;20024;-81
2022/05/20 01:50:33;;;;;;;3.90;3.50;;;;;;;16.81;67.99;102438.31;5093063;28;20050;-81
2022/05/20 01:53:13;;;;;;;4.40;3.40;;;;;;;16.82;67.99;102432.19;5076659;28;20059;-81
2022/05/20 01:55:42;;;;;;;3.70;3.40;;;;;;;16.79;67.88;102431.09;5075504;28;20031;-82
2022/05/20 01:58:40;;;;;;;4.05;3.60;;;;;;;16.75;67.92;102419.47;5094732;28;20078;-81
2022/05/20 02:01:09;;;;;;;3.75;3.30;;;;;;;16.79;67.97;102428.47;5094625;28;20031;-81
2022/05/20 02:03:54;;;;;;;3.78;3.40;;;;;;;16.78;67.88;102434.53;5094581;28;20024;-81
2022/05/20 02:06:37;;;;;;;4.72;3.40;;;;;;;16.79;67.90;102428.47;5075706;28;20054;-82
2022/05/20 02:09:10;;;;;;;5.90;3.35;;;;;;;16.76;67.79;102423.91;5075781;28;20024;-81
2022/05/20 02:11:45;;;;;;;4.15;3.33;;;;;;;16.79;67.78;102431.09;5076210;28;20115;-81
2022/05/20 02:14:40;;;;;;;3.75;3.38;;;;;;;16.75;67.72;102424.75;5093147;28;20020;-81
2022/05/20 02:17:14;;;;;;;4.32;3.22;;;;;;;16.63;67.92;102414.41;5075335;28;20032;-81
2022/05/20 02:19:47;;;;;;;4.00;3.60;;;;;;;16.73;67.66;102420.22;5094203;28;20027;-82
2022/05/20 02:22:17;;;;;;;3.42;3.00;;;;;;;16.73;67.77;102422.84;5094125;28;20497;-82
2022/05/20 02:24:44;;;;;;;4.97;3.53;;;;;;;16.72;67.67;102418.38;5074752;28;20544;-82
2022/05/20 02:27:16;;;;;;;5.15;3.35;;;;;;;16.75;67.50;102413.28;5092616;28;20115;-82
2022/05/20 02:29:53;;;;;;;3.45;3.15;;;;;;;16.69;67.72;102406.81;5075220;28;20021;-81
2022/05/20 02:32:36;;;;;;;3.70;3.40;;;;;;;16.68;67.68;102410.31;5094055;28;20021;-81
2022/05/20 02:35:03;;;;;;;3.42;3.13;;;;;;;16.69;67.53;102416.47;5092939;28;20044;-81
2022/05/20 02:37:31;;;;;;;4.13;3.35;;;;;;;16.71;67.49;102413.94;5093998;28;20500;-81
2022/05/20 02:39:57;;;;;;;3.50;3.20;;;;;;;16.60;67.48;102400.16;5075888;28;20028;-81
2022/05/20 02:42:23;;;;;;;;;;;;;;;16.75;67.33;102414.19;5076428;28;20023;-81
2022/05/20 02:44:49;;;;;;;4.00;3.33;;;;;;;16.69;67.52;102419.13;5069193;28;19912;-82
2022/05/20 02:47:15;;;;;;;4.15;3.50;;;;;;;16.67;67.58;102413.75;5074187;28;20036;-81
2022/05/20 02:49:41;;;;;;;4.93;3.38;;;;;;;16.65;67.55;102411.84;5093076;28;20532;-81
2022/05/20 02:52:07;;;;;;;4.20;3.45;;;;;;;16.67;67.44;102412.84;5093621;28;20020;-82
2022/05/20 02:54:33;;;;;;;;;;;;;;;16.68;67.62;102420.84;5091379;28;20042;-82
2022/05/20 02:56:58;;;;;;;4.00;3.60;;;;;;;16.62;67.66;102422.25;5075545;28;20010;-82
2022/05/20 03:04:52;;;;;;;3.75;3.05;;;;;;;16.64;67.39;102429.41;5091293;28;20031;-82
2022/05/20 03:07:18;;;;;;;4.20;2.97;;;;;;;16.61;67.34;102418.69;5093443;28;20417;-81
2022/05/20 03:09:43;;;;;;;5.72;3.35;;;;;;;16.61;67.46;102415.16;5093210;28;20042;-81
2022/05/20 03:12:11;;;;;;;3.63;3.00;;;;;;;16.61;67.44;102418.69;5093167;28;20048;-82
2022/05/20 03:14:38;;;;;;;3.72;3.33;;;;;;;16.60;67.62;102419.53;5091241;28;20028;-81
2022/05/20 03:17:13;;;;;;;5.72;3.35;;;;;;;16.59;67.59;102419.44;5096060;28;20024;-81
2022/05/20 03:19:57;;;;;;;5.35;3.47;;;;;;;16.65;67.28;102419.78;5105704;28;20084;-81
2022/05/20 03:22:23;;;;;;;4.05;3.20;;;;;;;16.63;67.14;102419.69;5116757;28;20076;-82
2022/05/20 03:24:49;;;;;;;4.25;3.20;;;;;;;16.53;67.35;102400.63;5093817;28;20028;-81
2022/05/20 03:27:16;;;;;;;3.70;3.13;;;;;;;16.39;67.33;102386.69;5074859;28;20036;-81
2022/05/20 03:29:44;;;;;;;4.00;3.22;;;;;;;16.59;67.48;102420.31;5074643;28;20036;-82
2022/05/20 03:32:10;;;;;;;6.10;3.30;;;;;;;16.59;67.33;102427.34;5092796;28;20020;-82
2022/05/20 03:34:38;;;;;;;3.85;3.40;;;;;;;16.42;67.29;102392.09;5090657;28;20039;-82
2022/05/20 03:37:04;;;;;;;4.55;3.55;;;;;;;16.55;67.38;102420.06;5092991;28;20024;-82
2022/05/20 03:39:30;;;;;;;3.72;3.38;;;;;;;16.52;67.29;102430.47;5074646;28;20027;-83
2022/05/20 03:41:56;;;;;;;5.28;3.40;;;;;;;16.41;67.49;102412.31;5073341;28;20570;-82
2022/05/20 03:44:22;;;;;;;7.13;3.53;;;;;;;16.49;67.27;102418.91;5074512;28;20024;-82
2022/05/20 03:46:51;;;;;;;4.72;3.40;;;;;;;16.56;67.19;102424.53;5092969;28;20032;-82
2022/05/20 03:49:18;;;;;;;3.53;3.20;;;;;;;16.33;67.27;102391.59;5092492;28;20680;-82
2022/05/20 03:51:45;;;;;;;5.38;3.63;;;;;;;16.50;67.41;102425.09;5092459;28;20028;-82
2022/05/20 03:54:11;;;;;;;3.40;3.13;;;;;;;16.39;67.32;102410.41;5073091;28;20110;-82
2022/05/20 03:56:38;;;;;;;;;;;;;;;16.55;67.12;102434.19;5074258;28;20039;-83
2022/05/20 03:59:03;;;;;;;4.00;3.60;;;;;;;16.47;67.28;102425.84;5092231;28;20290;-82
2022/05/20 04:04:13;;;;;;;6.85;3.60;;;;;;;16.39;67.32;102415.69;5072421;28;20137;-83
2022/05/20 04:06:38;;;;;;;6.45;3.60;;;;;;;16.45;67.29;102419.56;5054122;28;20111;-82
2022/05/20 04:09:05;;;;;;;3.50;3.20;;;;;;;16.45;67.36;102432.75;5060423;28;20390;-83
2022/05/20 04:11:32;;;;;;;4.07;3.50;;;;;;;16.39;67.18;102415.69;5056396;28;20176;-82
2022/05/20 04:13:57;;;;;;;3.83;3.42;;;;;;;16.41;67.35;102419.31;5090180;28;20036;-82
2022/05/20 04:16:23;;;;;;;4.00;3.17;;;;;;;16.49;67.26;102439.13;5072807;28;20421;-83
2022/05/20 04:18:49;;;;;;;3.85;3.45;;;;;;;16.48;67.18;102432.91;5073808;28;20485;-83
2022/05/20 04:21:15;;;;;;;3.65;3.35;;;;;;;16.35;67.30;102419.88;5091773;28;20027;-85
2022/05/20 04:23:41;;;;;;;4.15;3.10;;;;;;;16.45;67.22;102432.75;5067002;28;20554;-81
2022/05/20 04:26:08;;;;;;;4.75;3.08;;;;;;;16.28;67.15;102409.81;5091912;28;20516;-82
2022/05/20 04:28:34;;;;;;;4.35;3.67;;;;;;;16.44;67.33;102437.94;5089025;28;20111;-83
2022/05/20 04:31:01;;;;;;;5.05;3.58;;;;;;;16.45;67.18;102432.75;5054918;28;20032;-83
2022/05/20 04:33:27;;;;;;;4.50;3.30;;;;;;;16.40;67.39;102434.25;5089944;28;20107;-83
2022/05/20 04:35:53;;;;;;;3.65;3.35;;;;;;;16.41;67.43;102429.88;5084639;28;20063;-83
2022/05/20 04:38:19;;;;;;;4.50;3.70;;;;;;;16.40;67.36;102435.94;5073473;28;20101;-82
2022/05/20 04:46:56;;;;;;;;;;;;;;;16.36;67.56;102421.69;5074153;28;20455;-83
2022/05/20 04:48:59;;;;;;;6.35;3.63;;;;;;;16.37;67.41;102426.13;5090256;28;20125;-85
2022/05/20 04:51:24;;;;;;;4.45;2.95;;;;;;;16.25;67.63;102415.78;5090477;28;20075;-85
2022/05/20 04:56:34;;;;;;;3.65;3.25;;;;;;;16.34;67.67;102440.84;5091592;28;20150;-84
2022/05/20 04:59:01;;;;;;;7.05;3.72;;;;;;;16.24;67.74;102418.34;5091628;28;20061;-82
2022/05/20 05:01:26;;;;;;;4.85;3.47;;;;;;;16.34;67.71;102433.88;5089544;28;20032;-83
2022/05/20 05:03:52;;;;;;;4.10;3.25;;;;;;;16.26;67.80;102425.53;5091509;28;20031;-84
2022/05/20 05:06:17;;;;;;;5.43;3.47;;;;;;;16.33;67.78;102425.88;5091534;28;20043;-82
2022/05/20 05:08:43;;;;;;;4.03;3.42;;;;;;;16.22;68.13;102427.91;5089248;28;20035;-83
2022/05/20 05:11:08;;;;;;;3.50;3.15;;;;;;;15.99;68.13;102398.47;5091238;28;20424;-83
2022/05/20 05:13:34;;;;;;;4.93;3.47;;;;;;;16.21;68.07;102431.34;5091356;28;20488;-83
2022/05/20 05:16:06;;;;;;;5.15;3.70;;;;;;;16.18;68.31;102434.72;5073659;28;20016;-83
2022/05/20 05:18:32;;;;;;;3.83;3.40;;;;;;;16.16;68.18;102419.63;5058573;28;20025;-83
2022/05/20 05:20:59;;;;;;;4.00;3.63;;;;;;;15.89;68.38;102380.31;5077377;28;20031;-83
2022/05/20 05:23:26;;;;;;;5.18;3.25;;;;;;;16.26;68.22;102425.53;5088943;28;20043;-82
2022/05/20 05:25:51;;;;;;;4.18;3.28;;;;;;;16.21;68.32;102423.44;5091453;28;20024;-83
2022/05/20 05:28:17;;;;;;;4.80;3.28;;;;;;;16.21;68.65;102429.63;5083267;28;20036;-83
2022/05/20 05:30:50;;;;;;;4.32;3.38;;;;;;;16.21;68.46;102434.91;5059210;28;20028;-84
2022/05/20 05:33:17;;;;;;;4.10;3.42;;;;;;;16.19;68.79;102432.97;5049910;28;20481;-83
2022/05/20 05:35:42;;;;;;;3.80;3.38;;;;;;;16.16;68.88;102441.63;5072305;28;20044;-82
2022/05/20 05:38:08;;;;;;;4.78;3.63;;;;;;;16.16;68.71;102428.44;5090262;28;20074;-84
2022/05/20 05:40:34;;;;;;;4.40;3.40;;;;;;;16.24;68.63;102436.81;5106922;28;20051;-83
2022/05/20 05:43:00;;;;;;;5.75;4.03;;;;;;;16.21;68.67;102437.53;5098841;28;20038;-82
2022/05/20 05:45:28;;;;;;;3.72;3.33;;;;;;;16.21;68.78;102432.28;5110105;28;20115;-84
2022/05/20 05:47:59;;;;;;;3.78;3.40;;;;;;;16.21;68.87;102442.81;5096427;28;20467;-83
2022/05/20 05:50:27;;;;;;;4.68;3.42;;;;;;;16.16;69.02;102439.00;5078009;28;20059;-83
2022/05/20 05:53:02;;;;;;;4.75;3.60;;;;;;;16.19;68.89;102439.19;5087273;28;20059;-82
2022/05/20 05:55:28;;;;;;;4.05;3.28;;;;;;;16.19;68.89;102439.19;5106774;28;20028;-82
2022/05/20 05:57:54;;;;;;;3.50;3.20;;;;;;;16.18;68.70;102426.81;5115777;28;20093;-83
2022/05/20 06:00:20;;;;;;;3.97;3.40;;;;;;;16.13;68.77;102422.06;5096366;28;20051;-82
2022/05/20 06:02:46;;;;;;;3.95;3.40;;;;;;;16.21;69.07;102436.63;5079580;28;20032;-82
2022/05/20 06:05:12;;;;;;;4.15;3.67;;;;;;;16.18;69.08;102447.00;5096471;28;20028;-83
2022/05/20 06:07:37;;;;;;;4.35;3.85;;;;;;;16.15;69.30;102442.47;5088393;28;20030;-83
2022/05/20 06:10:03;;;;;;;4.18;3.45;;;;;;;16.19;69.20;102459.34;5096389;28;20035;-82
2022/05/20 06:12:31;;;;;;;3.63;3.33;;;;;;;16.20;69.12;102453.25;5096877;28;20040;-82
2022/05/20 06:15:18;;;;;;;3.80;3.35;;;;;;;16.20;69.16;102450.63;5122030;28;20039;-83
2022/05/20 06:17:44;;;;;;;5.25;3.63;;;;;;;16.21;69.07;102453.38;5109213;28;20012;-82
2022/05/20 06:20:11;;;;;;;3.75;3.38;;;;;;;16.24;69.11;102456.16;5130586;28;20035;-83
2022/05/20 06:22:36;;;;;;;3.65;3.28;;;;;;;16.16;69.17;102459.19;5100960;28;20059;-82
2022/05/20 06:25:03;;;;;;;3.78;3.47;;;;;;;16.15;69.27;102445.09;5109174;28;20063;-82
2022/05/20 06:27:28;;;;;;;3.92;3.47;;;;;;;16.33;69.00;102457.50;5105322;28;20024;-82
2022/05/20 06:29:54;;;;;;;3.78;3.35;;;;;;;16.25;69.36;102452.69;5083933;28;20031;-82
2022/05/20 06:32:20;;;;;;;3.85;3.33;;;;;;;16.26;69.35;102443.97;5074078;28;20036;-82
2022/05/20 06:40:18;;;;;;;3.40;3.10;;;;;;;16.27;69.35;102439.59;5059457;28;20086;-82
2022/05/20 06:42:44;;;;;;;4.50;3.42;;;;;;;16.29;69.43;102440.59;5073985;28;20043;-82
2022/05/20 06:45:11;;;;;;;3.50;3.20;;;;;;;16.27;69.53;102431.69;5055465;28;20413;-82
2022/05/20 06:47:37;;;;;;;3.58;3.28;;;;;;;16.23;69.68;102441.19;5094129;28;20024;-82
2022/05/20 06:50:05;;;;;;;3.88;3.10;;;;;;;16.26;69.47;102441.34;5084253;28;20057;-82
2022/05/20 06:52:31;;;;;;;4.22;3.15;;;;;;;16.11;69.73;102423.72;5080249;28;20031;-83
2022/05/20 06:54:56;;;;;;;3.30;3.00;;;;;;;16.17;69.83;102426.72;5102868;28;20510;-82
2022/05/20 06:57:24;;;;;;;3.33;3.03;;;;;;;16.16;69.40;102410.00;5099227;28;20528;-82
2022/05/20 06:59:51;;;;;;;3.78;3.38;;;;;;;16.30;69.58;102431.88;5110128;28;20382;-83
2022/05/20 07:02:17;;;;;;;3.72;3.28;;;;;;;16.17;69.80;102426.72;5094290;28;20084;-83
2022/05/20 07:04:42;;;;;;;4.13;3.42;;;;;;;16.27;69.75;102436.97;5094032;28;20099;-83
2022/05/20 07:07:08;;;;;;;3.50;3.20;;;;;;;15.83;69.76;102370.34;5093751;28;20092;-83
2022/05/20 07:09:34;;;;;;;3.22;2.92;;;;;;;16.29;69.83;102441.50;5100262;28;20165;-82
2022/05/20 07:11:59;;;;;;;4.38;3.33;;;;;;;16.32;69.76;102445.13;5093509;28;20420;-82
2022/05/20 07:14:25;;;;;;;3.25;2.95;;;;;;;16.29;69.97;102445.88;5068834;28;20089;-82
2022/05/20 07:16:51;;;;;;;3.53;2.97;;;;;;;16.31;69.87;102451.25;5100157;28;20491;-83
2022/05/20 07:19:17;;;;;;;4.68;3.80;;;;;;;16.22;69.80;102427.91;5084651;28;20036;-83
2022/05/20 07:21:43;;;;;;;4.90;3.40;;;;;;;16.25;69.93;102425.44;5059878;28;20104;-82
2022/05/20 07:24:09;;;;;;;3.70;3.20;;;;;;;16.31;70.14;102438.06;5041423;28;20123;-81
2022/05/20 07:26:35;;;;;;;4.30;3.20;;;;;;;16.21;70.10;102423.44;5091833;28;20036;-82
2022/05/20 07:29:02;;;;;;;6.05;3.40;;;;;;;16.29;70.06;102444.13;5073640;28;20044;-82
2022/05/20 07:31:28;;;;;;;3.35;3.05;;;;;;;16.31;70.08;102438.06;5092617;28;20026;-82
2022/05/20 07:33:54;;;;;;;4.45;3.28;;;;;;;16.20;70.18;102406.72;5095304;28;20115;-82
2022/05/20 07:36:20;;;;;;;3.50;3.20;;;;;;;16.33;70.46;102445.22;5098612;28;20511;-83
2022/05/20 07:38:45;;;;;;;3.75;3.42;;;;;;;16.14;70.10;102411.63;5098015;28;20111;-83
2022/05/20 07:41:12;;;;;;;3.88;3.47;;;;;;;16.24;70.14;102426.25;5095310;28;20118;-83
2022/05/20 07:43:38;;;;;;;3.65;3.35;;;;;;;16.36;70.20;102449.75;5074002;28;20107;-82
2022/05/20 07:46:04;;;;;;;3.47;3.17;;;;;;;16.35;70.05;102440.06;5075679;28;20066;-82
2022/05/20 07:48:30;;;;;;;3.50;3.20;;;;;;;16.37;70.30;102447.22;5090188;28;20044;-82
2022/05/20 07:51:17;;;;;;;3.88;3.47;;;;;;;16.41;70.18;102445.69;5092606;28;20078;-82
2022/05/20 07:53:45;;;;;;;3.58;3.28;;;;;;;16.37;70.27;102443.69;5074526;28;20035;-82
2022/05/20 07:56:18;;;;;;;3.72;3.42;;;;;;;16.38;70.32;102441.16;5093282;28;20032;-82
2022/05/20 07:58:48;;;;;;;5.10;3.63;;;;;;;16.39;69.91;102429.75;5094136;28;20027;-82
2022/05/20 08:01:16;;;;;;;4.18;3.20;;;;;;;16.48;69.92;102438.19;5061629;28;20439;-82
2022/05/20 08:06:26;;;;;;;4.57;3.40;;;;;;;16.62;69.54;102427.53;5088517;28;20484;-82
2022/05/20 08:08:53;;;;;;;5.78;3.25;;;;;;;16.37;69.79;102397.13;5082727;28;20089;-82
2022/05/20 08:11:18;;;;;;;6.10;3.60;;;;;;;16.62;69.64;102427.53;5090840;28;20106;-80
2022/05/20 08:13:44;;;;;;;3.75;3.45;;;;;;;16.49;69.87;102418.03;5087439;28;20473;-82
2022/05/20 08:16:10;;;;;;;4.40;3.67;;;;;;;16.49;69.74;102418.03;5085918;28;20480;-83
2022/05/20 08:18:36;;;;;;;4.22;3.42;;;;;;;16.56;69.84;102430.72;5089016;28;20490;-83
2022/05/20 08:21:02;;;;;;;4.97;3.80;;;;;;;16.53;69.91;102429.63;5088833;28;20032;-83
2022/05/20 08:23:27;;;;;;;4.40;3.67;;;;;;;16.60;69.88;102430.06;5086572;28;20038;-83
2022/05/20 08:25:53;;;;;;;5.10;3.50;;;;;;;16.44;69.93;102407.19;5095036;28;20024;-82
2022/05/20 08:28:19;;;;;;;4.03;3.50;;;;;;;16.55;69.78;102420.06;5092032;28;20032;-83
2022/05/20 08:30:45;;;;;;;3.70;3.30;;;;;;;16.62;69.96;102420.50;5086627;28;20087;-82
2022/05/20 08:33:11;;;;;;;4.32;3.50;;;;;;;16.53;70.08;102417.38;5088252;28;20028;-81
2022/05/20 08:35:37;;;;;;;4.55;3.75;;;;;;;16.52;70.32;102409.38;5090410;28;20558;-85
2022/05/20 08:38:04;;;;;;;4.20;3.60;;;;;;;16.57;70.27;102413.16;5089820;28;20031;-84
2022/05/20 08:40:39;;;;;;;4.88;3.65;;;;;;;16.59;70.26;102409.78;5075409;28;20035;-85
2022/05/20 08:43:05;;;;;;;4.77;4.07;;;;;;;16.47;70.42;102383.66;5087457;28;20028;-84
2022/05/20 08:45:35;;;;;;;3.55;3.20;;;;;;;16.57;70.23;102392.94;5072323;28;20032;-83
2022/05/20 08:48:04;;;;;;;4.22;3.72;;;;;;;16.65;70.13;102412.75;5055420;28;20477;-83
2022/05/20 08:50:40;;;;;;;4.05;3.60;;;;;;;16.53;70.19;102390.06;5071528;28;20024;-82
2022/05/20 08:53:36;;;;;;;19.30;5.05;;;;;;;17.09;67.42;102401.13;5066859;28;20085;-82
2022/05/20 08:56:05;;;;;;;14.18;4.65;;;;;;;17.01;67.79;102413.00;5076850;28;20038;-83
2022/05/20 08:58:31;;;;;;;11.40;4.82;;;;;;;16.84;68.59;102396.25;5088370;28;20111;-84
2022/05/20 09:00:56;;;;;;;9.80;4.53;;;;;;;16.74;69.16;102385.97;5069495;28;20114;-83
2022/05/20 09:03:22;;;;;;;11.27;4.63;;;;;;;16.70;69.40;102381.38;5087055;28;20111;-84
2022/05/20 09:05:49;;;;;;;9.48;4.28;;;;;;;16.74;69.62;102393.88;5070730;28;20090;-84
2022/05/20 09:08:17;;;;;;;8.10;4.25;;;;;;;16.76;69.54;102393.97;5058267;28;20038;-83
2022/05/20 09:10:46;;;;;;;7.05;4.20;;;;;;;16.79;69.57;102400.34;5083960;28;20110;-83
2022/05/20 09:15:43;;;;;;;10.10;4.40;;;;;;;16.81;69.50;102400.47;5106220;28;20008;-83
2022/05/20 09:16:12;;;;;;;7.55;3.97;;;;;;;16.71;69.52;102371.72;5090817;28;20031;-84
2022/05/20 09:18:40;;;;;;;5.35;3.78;;;;;;;16.83;69.50;102394.44;5096160;28;20024;-83
2022/05/20 09:21:08;;;;;;;9.13;4.03;;;;;;;16.79;69.36;102373.97;5076533;28;20024;-83
2022/05/20 09:23:49;;;;;;;7.78;4.45;;;;;;;16.87;69.33;102382.34;5073599;28;20024;-83
2022/05/20 09:26:22;;;;;;;6.40;4.10;;;;;;;16.80;69.23;102373.16;5059594;28;20366;-83
2022/05/20 09:28:53;;;;;;;6.00;3.85;;;;;;;16.89;69.21;102386.88;5060621;28;20093;-83
2022/05/20 09:31:43;;;;;;;5.78;3.70;;;;;;;16.88;69.45;102377.13;5076819;28;20028;-83
2022/05/20 09:34:26;;;;;;;7.70;3.88;;;;;;;16.91;69.21;102371.09;5060385;28;20388;-83
2022/05/20 09:36:57;;;;;;;8.02;4.07;;;;;;;16.88;69.17;102360.38;5095139;28;20035;-83
2022/05/20 09:39:44;;;;;;;5.13;4.07;;;;;;;17.00;68.78;102373.34;5095492;28;20027;-81
2022/05/20 09:42:27;;;;;;;7.90;3.90;;;;;;;17.00;68.36;102371.59;5094963;28;20032;-80
2022/05/20 09:44:58;;;;;;;5.63;3.90;;;;;;;16.98;68.82;102367.97;5094877;28;20028;-84
2022/05/20 09:47:27;;;;;;;5.65;3.90;;;;;;;17.00;68.64;102371.59;5076785;28;20462;-85
2022/05/20 09:49:56;;;;;;;7.18;4.13;;;;;;;17.05;68.73;102364.81;5064023;28;20048;-84
2022/05/20 09:52:42;;;;;;;4.38;3.55;;;;;;;17.25;66.80;102368.53;5075077;28;20028;-84
2022/05/20 09:55:24;;;;;;;8.02;4.40;;;;;;;17.75;64.50;102345.50;5056109;28;20131;-85
2022/05/20 09:57:50;;;;;;;16.45;5.22;;;;;;;18.00;63.67;102352.06;5074607;28;20035;-85
2022/05/20 10:00:20;;;;;;;13.68;4.68;;;;;;;17.58;65.72;102356.97;5073127;28;20025;-85
2022/05/20 10:02:58;;;;;;;14.88;4.60;;;;;;;17.45;66.46;102355.44;5056672;28;20032;-85
2022/05/20 10:05:27;;;;;;;9.45;4.75;;;;;;;17.11;66.99;102310.56;5074846;28;20032;-84
2022/05/20 10:08:08;;;;;;;9.73;4.93;;;;;;;17.36;67.32;102354.97;5074432;28;20125;-84
2022/05/20 10:10:43;;;;;;;10.50;4.80;;;;;;;17.31;68.06;102357.34;5074009;28;20056;-86
2022/05/20 10:13:24;;;;;;;6.75;4.10;;;;;;;17.09;68.13;102328.94;5074505;28;20126;-85
2022/05/20 10:15:55;;;;;;;8.43;4.30;;;;;;;17.25;68.38;102359.69;5080938;28;20027;-85
2022/05/20 10:18:52;;;;;;;7.75;3.92;;;;;;;17.26;68.52;102356.22;5108443;28;20031;-91
2022/05/20 10:21:24;;;;;;;8.40;4.30;;;;;;;17.27;68.81;102360.66;5095246;28;20078;-91
2022/05/20 10:24:04;;;;;;;10.48;4.35;;;;;;;17.28;68.67;102362.50;5072151;28;20075;-90
2022/05/20 10:26:53;;;;;;;8.57;4.10;;;;;;;17.29;68.64;102356.38;5073952;28;20106;-90
2022/05/20 10:32:40;;;;;;;7.03;4.35;;;;;;;17.13;68.83;102327.38;5061191;28;20036;-91
2022/05/20 10:35:14;;;;;;;5.55;4.05;;;;;;;17.29;68.81;102353.72;5056584;28;20035;-89
2022/05/20 10:38:03;;;;;;;6.32;3.67;;;;;;;17.32;68.80;102351.28;5056113;28;20028;-89
2022/05/20 10:40:40;;;;;;;7.00;4.00;;;;;;;17.36;69.23;102349.69;5088840;28;20019;-90
2022/05/20 10:43:05;;;;;;;;;;;;;;;17.32;68.94;102351.28;5094152;28;20470;-87
2022/05/20 10:49:03;;;;;;;7.18;4.18;;;;;;;17.33;69.77;102350.44;5089224;28;20051;-86
2022/05/20 10:51:38;;;;;;;7.18;4.25;;;;;;;17.37;70.45;102356.78;5093782;28;20117;-86
2022/05/20 10:54:30;;;;;;;9.73;4.50;;;;;;;17.40;70.27;102349.94;5093709;28;20024;-85
2022/05/20 10:57:33;;;;;;;6.63;4.53;;;;;;;17.42;70.30;102339.44;5073917;28;20027;-87
2022/05/20 11:00:10;;;;;;;7.28;4.38;;;;;;;17.42;70.38;102339.44;5092711;28;20055;-85
2022/05/20 11:03:13;;;;;;;7.43;4.32;;;;;;;17.49;69.97;102341.56;5090920;28;20531;-85
2022/05/20 11:05:45;;;;;;;6.88;4.35;;;;;;;17.45;70.10;102329.03;5072693;28;20059;-85
2022/05/20 11:08:16;;;;;;;5.40;3.83;;;;;;;17.46;70.42;102337.03;5087146;28;20031;-86
2022/05/20 11:10:52;;;;;;;7.22;4.50;;;;;;;17.47;70.35;102335.31;5074947;28;20048;-85
2022/05/20 11:13:44;;;;;;;5.70;4.30;;;;;;;17.48;70.54;102337.09;5092358;28;20682;-85
2022/05/20 11:16:19;;;;;;;6.30;4.13;;;;;;;17.43;70.46;102310.47;5093043;28;20536;-85
2022/05/20 11:19:13;;;;;;;5.05;4.00;;;;;;;17.51;70.58;102313.50;5093289;28;20028;-86
2022/05/20 11:22:03;;;;;;;32.22;8.40;;;;;;;17.54;70.53;102320.66;5074925;28;20028;-84
2022/05/20 11:24:40;;;;;;;37.42;9.68;;;;;;;17.57;70.46;102319.09;5093089;28;20028;-84
2022/05/20 11:27:27;;;;;;;35.78;9.80;;;;;;;17.59;70.91;102309.50;5094269;28;20023;-87
2022/05/20 11:30:11;;;;;;;43.95;10.30;;;;;;;17.51;70.95;102302.94;5092852;28;20115;-86
2022/05/20 11:32:55;;;;;;;53.78;12.75;;;;;;;17.59;70.69;102309.50;5096471;28;20427;-85
2022/05/20 11:35:53;;;;;;;50.20;14.68;;;;;;;17.59;70.72;102304.22;5090954;28;20035;-86
2022/05/20 11:38:27;;;;;;;75.43;19.15;;;;;;;17.63;70.63;102299.97;5097890;28;20027;-86
2022/05/20 11:41:05;;;;;;;74.38;19.42;;;;;;;17.63;70.96;102294.69;5101860;28;20417;-86
2022/05/20 11:43:36;;;;;;;74.78;19.63;;;;;;;17.64;70.99;102296.53;5103856;28;20099;-86
2022/05/20 11:46:20;;;;;;;84.03;21.42;;;;;;;17.62;70.82;102293.78;5095384;28;20058;-86
2022/05/20 11:48:57;;;;;;;92.97;22.60;;;;;;;17.66;70.90;102287.84;5106203;28;20023;-86
2022/05/20 11:51:58;;;;;;;88.47;22.27;;;;;;;17.68;70.91;102293.22;5112852;28;20089;-86
2022/05/20 11:54:26;;;;;;;85.22;21.60;;;;;;;17.72;70.93;102286.34;5058723;28;20039;-85
2022/05/20 11:57:03;;;;;;;76.78;21.00;;;;;;;17.64;71.24;102278.03;5108049;28;20028;-85
2022/05/20 11:59:33;;;;;;;64.85;19.65;;;;;;;17.67;71.17;102286.09;5054253;28;20017;-86
2022/05/20 12:02:00;;;;;;;71.68;19.90;;;;;;;17.72;71.07;102274.03;5091392;28;20031;-85
2022/05/20 12:04:30;;;;;;;64.75;18.17;;;;;;;17.67;71.50;102271.16;5106147;28;20016;-86
2022/05/20 12:07:12;;;;;;;68.88;18.17;;;;;;;17.64;71.42;102278.94;5091013;28;20035;-88
2022/05/20 12:09:48;;;;;;;73.78;18.73;;;;;;;17.65;70.98;102270.19;5090880;28;20084;-87
2022/05/20 12:12:27;;;;;;;;;;;;;;;17.70;70.70;102270.41;5054394;28;20051;-89
2022/05/20 12:14:59;;;;;;;59.67;17.58;;;;;;;17.67;70.54;102268.53;5095708;28;19920;-85